createdAt,value
2018-12-30T00:02:23.281Z,2.17
2018-12-30T00:04:52.540Z,2.20
2018-12-30T00:07:21.578Z,1.80
2018-12-30T00:09:48.896Z,2.50
2018-12-30T00:12:18.237Z,2.33
2018-12-30T00:14:45.870Z,2.50
2018-12-30T00:17:13.228Z,2.20
2018-12-30T00:19:42.418Z,2.00
2018-12-30T00:22:09.579Z,1.87
2018-12-30T00:24:56.254Z,2.17
2018-12-30T00:27:23.570Z,2.33
2018-12-30T00:29:50.990Z,2.20
2018-12-30T00:32:18.442Z,2.10
2018-12-30T00:34:46.121Z,2.90
2018-12-30T00:37:13.445Z,2.53
2018-12-30T00:39:40.758Z,2.53
2018-12-30T00:44:56.255Z,2.60
2018-12-30T00:47:23.662Z,2.50
2018-12-30T00:49:51.075Z,2.73
2018-12-30T00:52:18.469Z,2.57
2018-12-30T00:54:45.923Z,3.10
2018-12-30T00:59:59.943Z,2.70
2018-12-30T01:02:27.375Z,2.53
2018-12-30T01:04:54.745Z,3.00
2018-12-30T01:07:22.084Z,3.07
2018-12-30T01:09:49.423Z,3.17
2018-12-30T01:12:16.747Z,2.20
2018-12-30T01:14:44.062Z,3.87
2018-12-30T01:17:11.421Z,2.87
2018-12-30T01:19:38.751Z,3.57
2018-12-30T01:22:06.077Z,3.07
2018-12-30T01:24:33.459Z,2.57
2018-12-30T01:27:02.624Z,3.77
2018-12-30T01:29:30.050Z,2.83
2018-12-30T01:31:57.367Z,2.90
2018-12-30T01:34:24.991Z,2.70
2018-12-30T01:36:52.306Z,3.20
2018-12-30T01:39:19.614Z,3.07
2018-12-30T01:41:48.670Z,2.63
2018-12-30T01:44:15.987Z,2.50
2018-12-30T01:46:43.314Z,2.70
2018-12-30T01:49:10.959Z,2.70
2018-12-30T01:51:38.266Z,2.70
2018-12-30T01:54:05.573Z,3.00
2018-12-30T01:56:32.906Z,3.00
2018-12-30T01:59:00.218Z,3.20
2018-12-30T02:01:27.534Z,2.83
2018-12-30T02:03:55.178Z,3.30
2018-12-30T02:09:10.590Z,2.40
2018-12-30T02:11:38.338Z,3.13
2018-12-30T02:14:08.675Z,2.30
2018-12-30T02:16:35.977Z,3.30
2018-12-30T02:19:03.302Z,2.53
2018-12-30T02:21:30.617Z,2.90
2018-12-30T02:23:57.935Z,2.90
2018-12-30T02:26:25.530Z,2.13
2018-12-30T02:28:52.837Z,2.77
2018-12-30T02:31:20.161Z,3.77
2018-12-30T02:33:49.212Z,2.27
2018-12-30T02:36:16.594Z,3.13
2018-12-30T02:38:43.943Z,2.93
2018-12-30T02:41:11.246Z,2.70
2018-12-30T02:43:38.573Z,2.70
2018-12-30T02:46:06.201Z,3.13
2018-12-30T02:48:33.539Z,2.50
2018-12-30T02:51:00.875Z,3.40
2018-12-30T02:53:28.182Z,3.57
2018-12-30T02:55:55.826Z,2.57
2018-12-30T02:58:23.148Z,2.80
2018-12-30T03:00:52.179Z,2.90
2018-12-30T03:03:19.518Z,3.40
2018-12-30T03:06:06.183Z,2.60
2018-12-30T03:08:33.514Z,2.80
2018-12-30T03:13:33.699Z,2.93
2018-12-30T03:16:01.011Z,3.30
2018-12-30T03:18:28.366Z,2.63
2018-12-30T03:20:55.700Z,2.33
2018-12-30T03:23:23.038Z,3.07
2018-12-30T03:25:50.344Z,2.70
2018-12-30T03:28:17.685Z,2.50
2018-12-30T03:30:45.015Z,3.70
2018-12-30T03:33:12.339Z,2.97
2018-12-30T03:35:39.642Z,3.17
2018-12-30T03:38:06.954Z,2.57
2018-12-30T03:40:34.723Z,3.40
2018-12-30T03:43:02.377Z,3.53
2018-12-30T03:45:30.042Z,2.87
2018-12-30T03:47:57.355Z,3.00
2018-12-30T03:50:24.658Z,3.00
2018-12-30T03:52:51.990Z,3.13
2018-12-30T03:55:19.305Z,3.60
2018-12-30T03:57:46.617Z,3.00
2018-12-30T04:00:13.950Z,2.60
2018-12-30T04:02:41.828Z,4.13
2018-12-30T04:05:10.336Z,3.47
2018-12-30T04:07:38.068Z,2.87
2018-12-30T04:12:59.713Z,2.63
2018-12-30T04:18:15.103Z,3.03
2018-12-30T04:20:42.415Z,2.90
2018-12-30T04:23:09.739Z,2.63
2018-12-30T04:25:37.072Z,3.10
2018-12-30T04:28:04.405Z,2.70
2018-12-30T04:30:31.714Z,3.13
2018-12-30T04:32:59.028Z,2.57
2018-12-30T04:35:26.775Z,2.70
2018-12-30T04:37:54.333Z,2.83
2018-12-30T04:40:21.642Z,3.23
2018-12-30T04:42:48.972Z,2.73
2018-12-30T04:45:16.278Z,2.27
2018-12-30T04:47:43.597Z,2.90
2018-12-30T04:50:10.910Z,4.07
2018-12-30T04:52:38.242Z,2.80
2018-12-30T04:55:05.549Z,2.93
2018-12-30T04:57:32.870Z,2.80
2018-12-30T05:00:00.207Z,2.87
2018-12-30T05:02:27.534Z,3.03
2018-12-30T05:08:02.117Z,2.83
2018-12-30T05:10:29.428Z,2.83
2018-12-30T05:12:56.774Z,3.30
2018-12-30T05:15:24.083Z,3.07
2018-12-30T05:17:51.417Z,3.30
2018-12-30T05:20:18.737Z,2.90
2018-12-30T05:22:46.070Z,2.93
2018-12-30T05:25:13.390Z,3.43
2018-12-30T05:27:40.704Z,3.70
2018-12-30T05:30:08.033Z,3.40
2018-12-30T05:32:35.365Z,2.87
2018-12-30T05:35:02.690Z,2.93
2018-12-30T05:37:30.018Z,3.43
2018-12-30T05:39:57.336Z,3.20
2018-12-30T05:42:24.646Z,2.80
2018-12-30T05:44:51.977Z,2.80
2018-12-30T05:47:19.289Z,3.37
2018-12-30T05:49:46.606Z,2.83
2018-12-30T05:52:13.934Z,4.03
2018-12-30T05:54:41.252Z,3.60
2018-12-30T05:57:08.564Z,4.13
2018-12-30T05:59:35.898Z,2.63
2018-12-30T06:02:03.214Z,2.70
2018-12-30T06:04:30.547Z,3.00
2018-12-30T06:07:17.144Z,3.43
2018-12-30T06:09:44.462Z,3.07
2018-12-30T06:12:11.779Z,3.00
2018-12-30T06:14:39.089Z,3.50
2018-12-30T06:17:06.855Z,2.90
2018-12-30T06:19:34.166Z,2.53
2018-12-30T06:22:01.473Z,3.53
2018-12-30T06:24:28.798Z,3.07
2018-12-30T06:26:56.109Z,2.47
2018-12-30T06:29:23.433Z,3.47
2018-12-30T06:31:50.746Z,3.10
2018-12-30T06:34:18.057Z,2.93
2018-12-30T06:36:45.679Z,3.30
2018-12-30T06:39:13.238Z,3.03
2018-12-30T06:41:40.545Z,3.10
2018-12-30T06:44:07.878Z,2.90
2018-12-30T06:46:35.501Z,2.60
2018-12-30T06:49:03.057Z,2.90
2018-12-30T06:51:30.387Z,2.87
2018-12-30T06:53:57.705Z,3.33
2018-12-30T06:56:25.033Z,3.47
2018-12-30T06:58:52.370Z,4.17
2018-12-30T07:01:19.719Z,3.47
2018-12-30T07:03:47.025Z,3.53
2018-12-30T07:06:14.333Z,3.33
2018-12-30T07:08:41.658Z,3.57
2018-12-30T07:11:10.710Z,3.20
2018-12-30T07:13:38.034Z,3.60
2018-12-30T07:16:05.337Z,3.60
2018-12-30T07:18:32.651Z,3.60
2018-12-30T07:20:59.979Z,3.63
2018-12-30T07:23:27.306Z,2.90
2018-12-30T07:25:54.670Z,3.00
2018-12-30T07:28:21.973Z,4.23
2018-12-30T07:30:49.277Z,3.13
2018-12-30T07:33:16.618Z,3.17
2018-12-30T07:35:43.922Z,2.90
2018-12-30T07:38:11.231Z,2.70
2018-12-30T07:40:38.549Z,2.50
2018-12-30T07:43:05.858Z,2.83
2018-12-30T07:45:33.181Z,3.70
2018-12-30T07:48:00.490Z,3.30
2018-12-30T07:50:28.134Z,2.90
2018-12-30T07:52:55.457Z,3.33
2018-12-30T07:55:23.051Z,2.80
2018-12-30T07:57:50.355Z,2.70
2018-12-30T08:00:17.663Z,3.03
2018-12-30T08:02:45.315Z,3.27
2018-12-30T08:05:12.626Z,3.30
2018-12-30T08:07:40.223Z,2.80
2018-12-30T08:10:07.549Z,3.10
2018-12-30T08:12:35.138Z,3.00
2018-12-30T08:15:02.702Z,2.90
2018-12-30T08:17:30.362Z,3.77
2018-12-30T08:19:57.689Z,3.00
2018-12-30T08:22:24.993Z,2.87
2018-12-30T08:24:52.326Z,2.90
2018-12-30T08:27:19.634Z,3.07
2018-12-30T08:32:40.602Z,3.47
2018-12-30T08:35:07.910Z,3.20
2018-12-30T08:37:35.213Z,3.37
2018-12-30T08:40:02.864Z,3.87
2018-12-30T08:42:30.177Z,4.60
2018-12-30T08:44:57.508Z,5.57
2018-12-30T08:47:24.846Z,5.80
2018-12-30T08:49:52.154Z,5.10
2018-12-30T08:52:19.463Z,4.83
2018-12-30T08:54:47.086Z,3.60
2018-12-30T08:57:14.410Z,3.90
2018-12-30T08:59:41.819Z,4.40
2018-12-30T09:02:09.149Z,3.67
2018-12-30T09:04:36.456Z,3.40
2018-12-30T09:07:04.067Z,3.40
2018-12-30T09:09:31.718Z,2.60
2018-12-30T09:11:59.019Z,2.90
2018-12-30T09:14:26.354Z,3.20
2018-12-30T09:16:53.697Z,2.40
2018-12-30T09:19:21.033Z,2.80
2018-12-30T09:21:48.335Z,2.90
2018-12-30T09:24:15.675Z,2.53
2018-12-30T09:26:43.310Z,2.17
2018-12-30T09:29:10.649Z,2.23
2018-12-30T09:31:37.989Z,2.20
2018-12-30T09:37:12.567Z,2.50
2018-12-30T09:39:39.870Z,2.53
2018-12-30T09:42:07.222Z,2.40
2018-12-30T09:47:41.786Z,2.73
2018-12-30T09:50:09.103Z,2.60
2018-12-30T09:52:36.434Z,2.20
2018-12-30T09:57:57.149Z,3.17
2018-12-30T10:00:24.457Z,2.67
2018-12-30T10:02:52.130Z,2.43
2018-12-30T10:05:19.797Z,2.63
2018-12-30T10:07:47.351Z,3.00
2018-12-30T10:10:14.689Z,2.73
2018-12-30T10:12:42.256Z,3.23
2018-12-30T10:15:10.231Z,2.93
2018-12-30T10:17:38.694Z,3.00
2018-12-30T10:23:00.350Z,2.70
2018-12-30T10:25:27.684Z,2.77
2018-12-30T10:27:55.261Z,3.40
2018-12-30T10:30:22.590Z,2.70
2018-12-30T10:32:50.174Z,3.80
2018-12-30T10:35:17.505Z,2.80
2018-12-30T10:37:44.833Z,2.80
2018-12-30T10:40:12.438Z,2.87
2018-12-30T10:42:40.002Z,3.23
2018-12-30T10:45:07.316Z,3.80
2018-12-30T10:47:34.908Z,3.73
2018-12-30T10:50:02.580Z,2.70
2018-12-30T10:52:29.873Z,2.97
2018-12-30T10:54:57.481Z,2.87
2018-12-30T10:57:25.046Z,2.57
2018-12-30T10:59:52.702Z,2.53
2018-12-30T11:02:20.366Z,2.73
2018-12-30T11:04:47.690Z,2.90
2018-12-30T11:07:15.277Z,2.97
2018-12-30T11:09:42.586Z,2.40
2018-12-30T11:12:09.913Z,2.67
2018-12-30T11:14:37.223Z,2.70
2018-12-30T11:17:04.538Z,3.67
2018-12-30T11:19:31.878Z,2.63
2018-12-30T11:21:59.186Z,2.67
2018-12-30T11:24:26.523Z,3.50
2018-12-30T11:26:53.829Z,2.33
2018-12-30T11:29:21.466Z,2.50
2018-12-30T11:31:48.798Z,2.40
2018-12-30T11:34:16.106Z,2.90
2018-12-30T11:39:37.049Z,2.50
2018-12-30T11:42:04.348Z,2.73
2018-12-30T11:44:31.645Z,2.73
2018-12-30T11:46:59.257Z,3.43
2018-12-30T11:49:26.556Z,3.00
2018-12-30T11:51:53.882Z,3.00
2018-12-30T11:54:21.512Z,3.53
2018-12-30T11:56:48.847Z,3.07
2018-12-30T11:59:16.149Z,3.43
2018-12-30T12:01:43.477Z,3.10
2018-12-30T12:04:10.812Z,2.97
2018-12-30T12:06:38.117Z,2.97
2018-12-30T12:11:59.040Z,2.87
2018-12-30T12:14:26.666Z,4.37
2018-12-30T12:16:54.003Z,4.57
2018-12-30T12:19:21.501Z,3.57
2018-12-30T12:21:49.138Z,2.90
2018-12-30T12:24:24.100Z,3.93
2018-12-30T12:26:45.513Z,3.67
2018-12-30T12:29:12.818Z,4.23
2018-12-30T12:31:40.146Z,4.17
2018-12-30T12:34:28.568Z,3.97
2018-12-30T12:36:56.198Z,4.40
2018-12-30T12:39:23.506Z,4.57
2018-12-30T12:41:50.849Z,4.17
2018-12-30T12:44:18.159Z,4.97
2018-12-30T12:46:45.466Z,4.27
2018-12-30T12:49:12.815Z,4.43
2018-12-30T12:51:40.189Z,4.87
2018-12-30T12:54:07.782Z,4.50
2018-12-30T12:56:35.110Z,4.40
2018-12-30T12:59:02.418Z,4.90
2018-12-30T13:01:29.750Z,5.17
2018-12-30T13:03:57.057Z,5.10
2018-12-30T13:06:24.362Z,4.80
2018-12-30T13:08:51.699Z,5.23
2018-12-30T13:11:19.362Z,5.00
2018-12-30T13:13:46.666Z,5.77
2018-12-30T13:16:13.978Z,4.63
2018-12-30T13:18:41.304Z,4.83
2018-12-30T13:21:08.609Z,5.27
2018-12-30T13:23:35.933Z,4.10
2018-12-30T13:26:03.267Z,4.97
2018-12-30T13:28:30.694Z,4.50
2018-12-30T13:30:57.993Z,4.20
2018-12-30T13:33:25.638Z,4.17
2018-12-30T13:35:53.306Z,4.23
2018-12-30T13:38:28.111Z,4.27
2018-12-30T13:40:49.673Z,3.90
2018-12-30T13:43:17.007Z,4.40
2018-12-30T13:45:44.336Z,4.67
2018-12-30T13:48:11.666Z,4.57
2018-12-30T13:50:38.999Z,3.90
2018-12-30T13:53:06.305Z,4.10
2018-12-30T13:55:41.042Z,4.17
2018-12-30T13:58:08.602Z,4.17
2018-12-30T14:03:22.866Z,4.43
2018-12-30T14:05:50.205Z,5.30
2018-12-30T14:08:17.524Z,4.50
2018-12-30T14:10:44.866Z,4.67
2018-12-30T14:13:12.217Z,4.80
2018-12-30T14:15:39.526Z,4.63
2018-12-30T14:18:06.831Z,4.63
2018-12-30T14:20:34.158Z,4.63
2018-12-30T14:23:01.830Z,4.90
2018-12-30T14:25:29.125Z,4.07
2018-12-30T14:27:56.466Z,4.43
2018-12-30T14:30:23.789Z,4.60
2018-12-30T14:32:51.093Z,4.57
2018-12-30T14:35:18.449Z,5.07
2018-12-30T14:37:45.762Z,5.10
2018-12-30T14:40:13.374Z,5.17
2018-12-30T14:42:40.702Z,4.90
2018-12-30T14:48:15.273Z,5.83
2018-12-30T14:50:42.582Z,5.70
2018-12-30T14:53:18.834Z,5.00
2018-12-30T14:55:38.949Z,5.77
2018-12-30T14:58:06.281Z,6.00
2018-12-30T15:00:33.657Z,5.33
2018-12-30T15:03:00.965Z,5.47
2018-12-30T15:05:28.595Z,5.70
2018-12-30T15:07:55.917Z,5.20
2018-12-30T15:10:23.254Z,5.67
2018-12-30T15:12:50.855Z,5.70
2018-12-30T15:15:18.186Z,5.47
2018-12-30T15:17:45.510Z,5.80
2018-12-30T15:20:12.835Z,5.93
2018-12-30T15:22:40.171Z,5.37
2018-12-30T15:25:11.710Z,5.73
2018-12-30T15:27:36.546Z,5.00
2018-12-30T15:32:57.746Z,5.27
2018-12-30T15:35:25.052Z,5.17
2018-12-30T15:37:52.377Z,5.23
2018-12-30T15:40:19.718Z,5.30
2018-12-30T15:42:47.054Z,5.80
2018-12-30T15:45:14.713Z,5.40
2018-12-30T15:47:42.023Z,5.53
2018-12-30T15:50:09.354Z,5.60
2018-12-30T15:52:36.981Z,5.63
2018-12-30T15:57:58.249Z,5.10
2018-12-30T16:00:25.552Z,5.87
2018-12-30T16:02:52.885Z,5.17
2018-12-30T16:05:20.217Z,6.07
2018-12-30T16:07:47.556Z,5.17
2018-12-30T16:10:15.186Z,5.73
2018-12-30T16:12:42.536Z,5.67
2018-12-30T16:15:09.834Z,8.17
2018-12-30T16:17:37.162Z,10.87
2018-12-30T16:22:58.329Z,7.17
2018-12-30T16:25:27.359Z,6.33
2018-12-30T16:27:54.690Z,6.33
2018-12-30T16:30:22.002Z,7.00
2018-12-30T16:32:49.353Z,6.50
2018-12-30T16:35:18.706Z,6.17
2018-12-30T16:37:46.053Z,6.53
2018-12-30T16:40:13.638Z,7.50
2018-12-30T16:42:40.976Z,6.70
2018-12-30T16:45:08.287Z,6.23
2018-12-30T16:47:41.753Z,7.50
2018-12-30T16:52:58.878Z,6.97
2018-12-30T16:55:26.185Z,6.50
2018-12-30T16:57:53.493Z,6.80
2018-12-30T17:00:20.834Z,5.93
2018-12-30T17:02:48.138Z,5.63
2018-12-30T17:05:15.466Z,5.10
2018-12-30T17:07:42.769Z,5.00
2018-12-30T17:10:10.152Z,5.20
2018-12-30T17:12:37.463Z,4.77
2018-12-30T17:17:58.834Z,4.00
2018-12-30T17:20:26.133Z,3.70
2018-12-30T17:22:53.463Z,3.10
2018-12-30T17:25:20.764Z,3.60
2018-12-30T17:27:48.089Z,3.20
2018-12-30T17:30:15.433Z,3.13
2018-12-30T17:32:42.825Z,3.33
2018-12-30T17:35:10.164Z,3.53
2018-12-30T17:37:37.495Z,3.00
2018-12-30T17:42:59.054Z,3.87
2018-12-30T17:45:26.362Z,3.97
2018-12-30T17:47:53.670Z,4.03
2018-12-30T17:50:20.990Z,4.00
2018-12-30T17:52:48.615Z,3.80
2018-12-30T17:55:15.938Z,4.03
2018-12-30T17:57:43.526Z,4.30
2018-12-30T18:00:10.860Z,5.90
2018-12-30T18:02:38.194Z,5.40
2018-12-30T18:07:59.690Z,6.43
2018-12-30T18:10:26.993Z,5.63
2018-12-30T18:12:54.325Z,7.20
2018-12-30T18:15:21.625Z,8.00
2018-12-30T18:17:48.986Z,8.60
2018-12-30T18:20:16.296Z,7.37
2018-12-30T18:22:43.601Z,6.40
2018-12-30T18:25:10.938Z,6.63
2018-12-30T18:27:38.251Z,6.77
2018-12-30T18:32:59.179Z,7.83
2018-12-30T18:35:26.474Z,6.83
2018-12-30T18:37:53.813Z,7.23
2018-12-30T18:40:21.487Z,6.53
2018-12-30T18:42:48.790Z,5.87
2018-12-30T18:45:16.113Z,7.07
2018-12-30T18:47:43.421Z,6.50
2018-12-30T18:50:10.744Z,6.73
2018-12-30T18:52:38.054Z,6.40
2018-12-30T18:57:59.022Z,6.27
2018-12-30T19:00:26.625Z,6.40
2018-12-30T19:02:54.286Z,7.43
2018-12-30T19:05:21.946Z,7.53
2018-12-30T19:07:49.277Z,7.50
2018-12-30T19:10:16.591Z,8.27
2018-12-30T19:12:43.926Z,8.17
2018-12-30T19:15:11.256Z,7.60
2018-12-30T19:17:38.954Z,8.00
2018-12-30T19:20:06.328Z,8.83
2018-12-30T19:22:33.937Z,8.20
2018-12-30T19:25:01.605Z,8.17
2018-12-30T19:27:28.910Z,8.67
2018-12-30T19:29:56.246Z,9.47
2018-12-30T19:32:23.581Z,8.97
2018-12-30T19:34:50.920Z,9.27
2018-12-30T19:37:18.231Z,9.70
2018-12-30T19:39:45.631Z,9.97
2018-12-30T19:42:12.933Z,9.93
2018-12-30T19:44:40.273Z,10.47
2018-12-30T19:47:07.893Z,19.20
2018-12-30T19:49:35.216Z,12.40
2018-12-30T19:52:02.549Z,11.70
2018-12-30T19:54:29.866Z,20.90
2018-12-30T19:56:57.198Z,12.43
2018-12-30T19:59:24.534Z,11.77
2018-12-30T20:01:51.853Z,13.13
2018-12-30T20:04:19.192Z,11.97
2018-12-30T20:06:46.518Z,12.80
2018-12-30T20:09:13.830Z,12.30
2018-12-30T20:11:41.166Z,30.93
2018-12-30T20:14:08.782Z,13.00
2018-12-30T20:16:36.150Z,15.13
2018-12-30T20:19:03.470Z,14.57
2018-12-30T20:21:31.041Z,12.83
2018-12-30T20:23:58.378Z,19.27
2018-12-30T20:26:29.913Z,15.20
2018-12-30T20:28:55.050Z,15.97
2018-12-30T20:31:22.418Z,15.67
2018-12-30T20:33:49.748Z,15.27
2018-12-30T20:36:17.426Z,16.23
2018-12-30T20:38:44.861Z,16.87
2018-12-30T20:41:12.183Z,17.90
2018-12-30T20:43:39.518Z,17.70
2018-12-30T20:46:06.848Z,19.60
2018-12-30T20:48:34.495Z,18.47
2018-12-30T20:51:21.201Z,21.40
2018-12-30T20:53:48.494Z,18.50
2018-12-30T20:56:37.901Z,22.43
2018-12-30T20:59:04.220Z,21.80
2018-12-30T21:01:31.593Z,19.97
2018-12-30T21:03:58.901Z,19.90
2018-12-30T21:06:26.238Z,20.30
2018-12-30T21:08:53.574Z,20.17
2018-12-30T21:11:20.917Z,21.23
2018-12-30T21:13:48.478Z,21.33
2018-12-30T21:16:15.813Z,20.37
2018-12-30T21:18:43.146Z,21.47
2018-12-30T21:21:10.470Z,22.30
2018-12-30T21:23:38.098Z,21.77
2018-12-30T21:26:05.418Z,21.70
2018-12-30T21:28:32.753Z,21.93
2018-12-30T21:31:00.362Z,24.00
2018-12-30T21:33:27.678Z,20.70
2018-12-30T21:35:54.991Z,22.40
2018-12-30T21:38:22.361Z,22.23
2018-12-30T21:40:49.672Z,22.33
2018-12-30T21:43:16.986Z,23.00
2018-12-30T21:45:44.342Z,21.40
2018-12-30T21:48:11.653Z,21.83
2018-12-30T21:50:38.966Z,21.73
2018-12-30T21:53:06.311Z,24.00
2018-12-30T21:55:33.646Z,21.50
2018-12-30T21:58:01.049Z,24.30
2018-12-30T22:00:28.425Z,22.87
2018-12-30T22:02:56.063Z,21.47
2018-12-30T22:05:23.446Z,27.00
2018-12-30T22:07:50.785Z,20.07
2018-12-30T22:10:18.102Z,19.53
2018-12-30T22:12:45.686Z,17.50
2018-12-30T22:15:13.089Z,18.43
2018-12-30T22:17:40.698Z,18.50
2018-12-30T22:20:08.117Z,19.13
2018-12-30T22:22:35.449Z,21.17
2018-12-30T22:25:02.844Z,20.13
2018-12-30T22:27:30.179Z,17.90
2018-12-30T22:29:57.490Z,19.43
2018-12-30T22:32:24.837Z,19.30
2018-12-30T22:34:52.179Z,19.50
2018-12-30T22:37:19.502Z,17.77
2018-12-30T22:39:46.838Z,18.60
2018-12-30T22:42:14.441Z,17.43
2018-12-30T22:44:41.779Z,18.27
2018-12-30T22:47:09.370Z,18.73
2018-12-30T22:49:36.710Z,27.27
2018-12-30T22:52:04.028Z,36.10
2018-12-30T22:54:31.358Z,22.17
2018-12-30T22:56:58.705Z,20.70
2018-12-30T22:59:26.017Z,18.97
2018-12-30T23:01:53.682Z,20.80
2018-12-30T23:04:21.018Z,20.27
2018-12-30T23:06:48.598Z,19.93
2018-12-30T23:09:15.922Z,20.07
2018-12-30T23:11:43.237Z,21.47
2018-12-30T23:14:10.581Z,21.20
2018-12-30T23:16:37.885Z,27.60
2018-12-30T23:19:05.218Z,22.00
2018-12-30T23:21:32.565Z,23.00
2018-12-30T23:24:00.196Z,22.30
2018-12-30T23:26:27.505Z,23.10
2018-12-30T23:28:55.153Z,25.33
2018-12-30T23:31:22.461Z,21.77
2018-12-30T23:33:50.102Z,22.23
2018-12-30T23:36:17.434Z,22.17
2018-12-30T23:41:33.041Z,21.73
2018-12-30T23:44:00.386Z,22.30
2018-12-30T23:46:27.730Z,23.90
2018-12-30T23:48:55.065Z,22.87
2018-12-30T23:51:22.373Z,25.97
2018-12-30T23:53:49.686Z,23.67
2018-12-30T23:56:17.023Z,22.93
2018-12-30T23:58:44.328Z,23.43
